Home Latest Filings Latest Buys Latest Sells Institutions Derivatives Hot Buys Data Screener Email Alerts Insider Charts
Our LatestBuys shows insider buys grouped by companies.
Members can see real-time insider transactions as well as historical ones. Become a Member
Latest Buys Filed . Total 63 Records.
Buy(P) /
Sell(S)
P/S date Filed Date Company Symbol Insider Relationship Share Amt. Unit Price Total Proceeds Shares Owned Details
P 2019-07-12 2019-07-15 10:41:36.0 ALLIANCEBERNSTEIN NATIONAL MUNICIPAL INCOME FUND AFB MOODY GARRY L director 3,700 $13.52 $50,024.00 7,500 view
P 2019-07-12 2019-07-15 16:05:42.0 ASPEN GROUP, INC. ASPU Sevely Joseph L. CFO 500 $4.70 $2,350.00 26,000 view
P 2019-07-12 2019-07-15 17:08:02.0 BALLANTYNE STRONG, INC. BTN MOGLIA JOSEPH H CEO 1,472 $3.15 $4,638.71 1,309,210 view
P 2019-07-12 2019-07-15 17:08:02.0 BALLANTYNE STRONG, INC. BTN MOGLIA JOSEPH H CEO 1,472 $3.15 $4,638.71 1,324,310 view
P 2019-07-11 2019-07-15 17:08:02.0 BALLANTYNE STRONG, INC. BTN MOGLIA JOSEPH H CEO 1,472 $3.18 $4,674.92 1,307,740 view
P 2019-07-11 2019-07-15 17:08:02.0 BALLANTYNE STRONG, INC. BTN MOGLIA JOSEPH H CEO 1,472 $3.18 $4,674.92 1,322,840 view
P 2019-07-11 2019-07-15 17:59:42.0 EMCLAIRE FINANCIAL CORP EMCF Bauer Milissa S director 100 $31.35 $3,135.00 100 view
P 2019-07-11 2019-07-15 17:47:03.0 EYENOVIA, INC. EYEN Ianchulev Tsontcho CEO 233,813 $2.78 $650,000.00 426,248 view
P 2019-07-11 2019-07-15 17:47:09.0 EYENOVIA, INC. EYEN LaBelle Curt H director 17,985 $2.78 $49,998.30 27,985 view
P 2019-07-11 2019-07-15 17:47:25.0 EYENOVIA, INC. EYEN MARIO ERNEST director 35,971 $2.78 $99,999.40 272,741 view
P 2019-07-15 2019-07-15 11:12:52.0 F&M BANK CORP FMBM BURKHOLDER EDWARD RAY director 225 $35.70 $8,032.50 674 view
P 2019-07-15 2019-07-15 19:10:51.0 Fastly, Inc. FSLY Moran Colin T. various various various various 10% owner 2,437 $21.39 $52,127.40 2,390,680 view
P 2019-07-11 2019-07-15 19:10:51.0 Fastly, Inc. FSLY Moran Colin T. various various various various 10% owner 81,124 $20.00 $1,622,480.00 2,334,370 view
P 2019-07-11 2019-07-15 19:10:51.0 Fastly, Inc. FSLY Moran Colin T. various various various various 10% owner 1,576 $20.00 $31,520.00 2,335,950 view
P 2019-07-11 2019-07-15 19:10:51.0 Fastly, Inc. FSLY Moran Colin T. various various various various 10% owner 2,256 $20.57 $46,405.90 2,338,200 view
P 2019-07-11 2019-07-15 19:10:51.0 Fastly, Inc. FSLY Moran Colin T. various various various various 10% owner 44 $20.57 $905.08 2,338,250 view
P 2019-07-12 2019-07-15 19:10:51.0 Fastly, Inc. FSLY Moran Colin T. various various various various 10% owner 34,088 $20.67 $704,599.00 2,372,340 view
P 2019-07-12 2019-07-15 19:10:51.0 Fastly, Inc. FSLY Moran Colin T. various various various various 10% owner 1,020 $20.67 $21,083.40 2,373,360 view
P 2019-07-12 2019-07-15 19:10:51.0 Fastly, Inc. FSLY Moran Colin T. various various various various 10% owner 14,460 $21.03 $304,094.00 2,387,820 view
P 2019-07-12 2019-07-15 19:10:51.0 Fastly, Inc. FSLY Moran Colin T. various various various various 10% owner 432 $21.03 $9,084.96 2,388,250 view
P 2019-07-15 2019-07-15 19:10:51.0 Fastly, Inc. FSLY Moran Colin T. various various various various 10% owner 78 $21.39 $1,668.42 2,390,760 view
P 2019-07-12 2019-07-15 16:31:52.0 FEDEX CORP FDX Inglis John C director 600 $167.69 $100,614.00 4,615 view
P 2019-07-12 2019-07-15 16:32:31.0 HEALTHEQUITY, INC. HQY DILLON ADRIAN T director 10,000 $61.00 $610,000.00 25,635 view
P 2019-07-12 2019-07-15 16:50:45.0 HEALTHEQUITY, INC. HQY Kessler Jon CEO 10,000 $61.00 $610,000.00 442,410 view
P 2019-07-12 2019-07-15 16:44:29.0 HEALTHEQUITY, INC. HQY Neeleman Stephen director officer (Founder and Vice Chairman) 10,000 $61.00 $610,000.00 576,285 view
P 2019-07-12 2019-07-15 16:38:37.0 HEALTHEQUITY, INC. HQY SELANDER ROBERT W director 10,000 $61.00 $610,000.00 32,669 view
P 2019-07-12 2019-07-15 19:35:54.0 ICOX INNOVATIONS INC. ICOX Chell Cameron director 11,000 $0.23 $2,585.00 61,000 view
P 2019-07-15 2019-07-15 15:34:15.0 KINGSWAY FINANCIAL SERVICES INC KFS Hickey William August Jr CFO 574 $2.62 $1,501.30 322,682 view
P 2019-07-15 2019-07-15 15:40:17.0 KINGSWAY FINANCIAL SERVICES INC KFS Fitzgerald John Taylor Maloney CEO 796 $2.62 $2,081.94 963,254 view
P 2019-07-15 2019-07-15 15:47:55.0 LILLY ELI & CO LLY Smiley Joshua L CFO 185 $108.47 $20,066.90 30,595 view
P 2019-07-11 2019-07-15 16:32:42.0 MERRIMACK PHARMACEUTICALS INC MACK Aryeh Jason 10% owner other 100 $5.71 $571.00 100 view
P 2019-07-12 2019-07-15 16:32:42.0 MERRIMACK PHARMACEUTICALS INC MACK Aryeh Jason 10% owner other 2,400 $5.71 $13,704.00 2,500 view
P 2019-07-12 2019-07-15 16:32:42.0 MERRIMACK PHARMACEUTICALS INC MACK Aryeh Jason 10% owner other 1,000 $5.62 $5,620.00 3,500 view
P 2019-07-11 2019-07-15 19:56:08.0 NGM BIOPHARMACEUTICALS INC NGM GOEDDEL DAVID V director 10% owner 10,870 $13.87 $150,752.00 1.5895E7 view
P 2019-07-12 2019-07-15 19:56:08.0 NGM BIOPHARMACEUTICALS INC NGM GOEDDEL DAVID V director 10% owner 21,014 $13.88 $291,765.00 1.5916E7 view
P 2019-07-12 2019-07-15 08:04:03.0 Opko Health, Inc. OPK Frost Nevada Investments Trust CEO 3,200 $2.12 $6,800.00 3.00305E7 view
P 2019-07-12 2019-07-15 08:04:03.0 Opko Health, Inc. OPK Frost Nevada Investments Trust CEO 100 $2.12 $212.00 3.00273E7 view
P 2019-07-12 2019-07-15 08:04:03.0 Opko Health, Inc. OPK Frost Nevada Investments Trust CEO 6,700 $2.13 $14,271.00 3.00372E7 view
P 2019-07-12 2019-07-15 08:04:03.0 Opko Health, Inc. OPK Frost Nevada Investments Trust CEO 5,000 $2.14 $10,700.00 3.00422E7 view
P 2019-07-12 2019-07-15 08:04:03.0 Opko Health, Inc. OPK Frost Nevada Investments Trust CEO 2,500 $2.14 $5,362.50 3.00447E7 view
P 2019-07-12 2019-07-15 08:04:03.0 Opko Health, Inc. OPK Frost Nevada Investments Trust CEO 700 $2.16 $1,512.00 3.00454E7 view
P 2019-07-12 2019-07-15 08:04:03.0 Opko Health, Inc. OPK Frost Nevada Investments Trust CEO 22,150 $2.16 $47,954.80 3.00675E7 view
P 2019-07-12 2019-07-15 08:04:03.0 Opko Health, Inc. OPK Frost Nevada Investments Trust CEO 2,650 $2.17 $5,750.50 3.00702E7 view
P 2019-07-12 2019-07-15 08:04:03.0 Opko Health, Inc. OPK Frost Nevada Investments Trust CEO 6,944 $2.17 $15,103.20 3.00771E7 view
P 2019-07-12 2019-07-15 08:04:03.0 Opko Health, Inc. OPK Frost Nevada Investments Trust various director officer 10% owner (CEO & Chairman) 56 $2.18 $122.08 3.00772E7 view
P 2019-07-11 2019-07-15 19:04:03.0 ORAMED PHARMACEUTICALS INC. ORMP Sank Leonard director 1,320 $3.22 $4,250.40 295,482 view
P 2019-07-15 2019-07-15 16:09:09.0 RESIDEO TECHNOLOGIES, INC. REZI Nefkens Michael G CEO 467 $21.40 $9,993.80 17,759 view
P 2019-07-12 2019-07-15 16:06:28.0 RESIDEO TECHNOLOGIES, INC. REZI Aarnes Robert B officer (President, ADI) 20 $21.49 $429.80 6,461 view
P 2019-07-12 2019-07-15 11:26:23.0 RETRACTABLE TECHNOLOGIES INC RVP SHAW THOMAS J CEO 18,816 $0.67 $12,663.20 1.42384E7 view
P 2019-07-12 2019-07-15 08:35:52.0 Roadrunner Transportation Systems, Inc. RRTS ELLIOTT INTERNATIONAL, L.P. 10% owner 5,455 $11.42 $62,296.10 2.31388E7 view
P 2019-07-11 2019-07-15 08:35:52.0 Roadrunner Transportation Systems, Inc. RRTS ELLIOTT INTERNATIONAL, L.P. 10% owner 3,277 $10.54 $34,539.60 2.31333E7 view
P 2019-07-15 2019-07-15 16:16:12.0 SUNESIS PHARMACEUTICALS INC SNSS ELMS STEVE various various various various 10% owner 2,500,000 $0.60 $1,500,000.00 1.01E7 view
P 2019-07-12 2019-07-15 11:12:38.0 TEXAS PACIFIC LAND TRUST TPL HORIZON KINETICS ASSET MANAGEMENT LLC 10% owner 49 $798.15 $39,109.40 299,007 view
P 2019-07-11 2019-07-15 11:51:57.0 W&T OFFSHORE INC WTI KROHN TRACY W CEO 100,300 $4.66 $467,398.00 4.61126E7 view
P 2019-07-12 2019-07-15 17:06:04.0 W&T OFFSHORE INC WTI KROHN TRACY W CEO 100,000 $4.60 $460,000.00 4.62126E7 view
P 2019-07-15 2019-07-15 14:04:42.0 YORK WATER CO YORW GANG MICHAEL W director 56 $33.35 $1,879.93 11,904 view
P 2019-07-15 2019-07-15 15:06:29.0 YORK WATER CO YORW Hardman Mark J officer (VP-Technology) 2 $33.35 $69.10 401 view
P 2019-07-15 2019-07-15 14:32:14.0 YORK WATER CO YORW Waters Ernest J director 5 $33.35 $183.37 1,064 view
P 2019-07-15 2019-07-15 14:24:06.0 YORK WATER CO YORW Rasmussen Steven R director 11 $33.35 $362.93 2,105 view
P 2019-07-15 2019-07-15 14:18:01.0 YORK WATER CO YORW NEWCOMER ROBERT P director 30 $33.35 $1,004.92 5,829 view
P 2019-07-15 2019-07-15 14:12:17.0 YORK WATER CO YORW Keller Jody L director 13 $33.35 $423.43 2,456 view
P 2019-07-15 2019-07-15 13:58:40.0 YORK WATER CO YORW Cawley James H director 2 $33.35 $61.37 556 view
P 2019-07-15 2019-07-15 13:51:54.0 YORK WATER CO YORW McGlaughlin Erin C director 6 $33.35 $199.78 1,159 view
* Filed by insider as open market transaction, but marked as private transaction by insidercow's proprietary method